Flight Track Log - Related Links

Times and Time Zones

All times are in EDT time to prevent confusion due to time zone crossing. See the AWI3551 flight status page for this flight to view local times or setup timezone preferences in your user account.

Time Position Orientation Groundspeed Altitude Reporting Facility
EDT Latitude Longitude Course Direction KTS MPH feet Rate Location/Type
Wed 05:32:27 AM 42.9333 -78.7500 180° South 160 184 1,600  Level Buffalo TRACON
Wed 05:33:33 AM 42.8833 -78.8000 216° Southwest 193 222 3,600 1,534 Climbing Buffalo TRACON
Wed 05:34:40 AM 42.8092 -78.8031 182° South 281 323 5,000 1,654 Climbing Cleveland Center
Wed 05:35:00 AM 42.6114 -78.6823 172° South  Level FlightAware Approximate
Wed 05:35:40 AM 42.7422 -78.7881 171° South 286 329 7,100  Level Cleveland Center
Wed 05:36:00 AM 42.5045 -78.6619 173° South  Level FlightAware Approximate
Wed 05:36:40 AM 42.6628 -78.7650 168° South 280 322 8,900  Level Cleveland Center
Wed 05:37:00 AM 42.3970 -78.6500 180° South  Level FlightAware Approximate
Wed 05:37:40 AM 42.5872 -78.7444 169° South 280 322 11,100  Level Cleveland Center
Wed 05:38:40 AM 42.4950 -78.7133 166° South 292 336 13,300 2,200 Climbing Cleveland Center
Wed 05:39:40 AM 42.4069 -78.6711 161° South 316 364 15,500 2,000 Climbing Cleveland Center
Wed 05:40:40 AM 42.3208 -78.6342 162° South 327 376 17,300 1,650 Climbing Cleveland Center
Wed 05:41:40 AM 42.2283 -78.5894 160° South 337 388 18,800 1,450 Climbing Cleveland Center
Wed 05:42:40 AM 42.1442 -78.5500 161° South 342 394 20,200 1,350 Climbing Cleveland Center
Wed 05:43:40 AM 42.0539 -78.5111 162° South 347 399 21,500 1,250 Climbing Cleveland Center
Wed 05:44:40 AM 41.9572 -78.4639 160° South 352 405 22,700 750 Climbing Cleveland Center
Wed 05:45:40 AM 41.8625 -78.4197 161° South 357 411 23,000 150 Climbing Cleveland Center
Wed 05:46:40 AM 41.7636 -78.3756 162° South 363 418 23,000  Level Cleveland Center
Wed 05:47:40 AM 41.6628 -78.3289 161° South 376 433 23,000  Level Cleveland Center
Wed 05:48:40 AM 41.5639 -78.2853 162° South 376 433 23,000  Level Cleveland Center
Wed 05:49:18 AM 41.4939 -78.2550 162° South 379 436 23,000  Level New York Center
Wed 05:50:18 AM 41.4150 -78.2186 161° South 379 436 23,000  Level New York Center
Wed 05:51:19 AM 41.3056 -78.1678 161° South 379 436 23,000  Level New York Center
Wed 05:52:20 AM 41.2083 -78.1239 161° South 373 429 23,000  Level New York Center
Wed 05:53:18 AM 41.1089 -78.0803 162° South 373 429 23,000  Level New York Center
Wed 05:54:18 AM 41.0094 -78.0336 160° South 373 429 23,000 -200 Level New York Center
Wed 05:55:18 AM 40.9125 -77.9850 159° South 373 429 22,600 -694 Descending New York Center
Wed 05:56:19 AM 40.8456 -77.8872 132° Southeast 362 417 21,600 -992 Descending New York Center
Wed 05:57:19 AM 40.7786 -77.7844 131° Southeast 362 417 20,600 -1,008 Descending New York Center
Wed 05:58:18 AM 40.7097 -77.6814 131° Southeast 367 422 19,600 -1,008 Descending New York Center
Wed 05:59:18 AM 40.6386 -77.5758 132° Southeast 373 429 18,600 -793 Descending New York Center
Wed 06:00:19 AM 40.5811 -77.4497 121° Southeast 373 429 18,000 -300 Descending New York Center
Wed 06:01:18 AM 40.5478 -77.3372 111° Southeast 368 423 18,000  Level New York Center
Wed 06:02:18 AM 40.5094 -77.2025 110° East 362 417 18,000  Level New York Center
Wed 06:03:19 AM 40.4781 -77.0878 110° East 362 417 18,000  Level New York Center
Wed 06:04:19 AM 40.4408 -76.9644 112° Southeast 362 417 18,000  Level New York Center
Wed 06:05:19 AM 40.4003 -76.8217 110° East 377 434 18,000  Level New York Center
Wed 06:06:20 AM 40.3594 -76.6819 111° Southeast 395 455 18,000 -50 Level New York Center
Wed 06:07:19 AM 40.3183 -76.5422 111° Southeast 402 463 17,900 -807 Descending New York Center
Wed 06:08:19 AM 40.2825 -76.4222 111° Southeast 402 463 16,400 -1,736 Descending New York Center
Wed 06:09:20 AM 40.2414 -76.2775 110° East 395 455 14,400 -1,714 Descending New York Center
Wed 06:10:18 AM 40.2033 -76.1547 112° Southeast 370 426 13,000 -1,525 Descending New York Center
Wed 06:11:18 AM 40.1669 -76.0378 112° Southeast 357 411 11,400 -1,488 Descending New York Center
Wed 06:12:19 AM 40.1378 -75.9378 111° Southeast 333 383 10,000 -1,328 Descending New York Center
Wed 06:13:20 AM 40.1089 -75.8381 111° Southeast 303 349 8,700 -1,339 Descending New York Center
Wed 06:14:20 AM 40.0803 -75.7247 108° East 297 342 7,300 -1,250 Descending New York Center
Wed 06:15:20 AM 40.0758 -75.6322 94° East 286 329 6,200 -650 Descending New York Center
Wed 06:16:20 AM 40.0700 -75.5206 94° East 286 329 6,000 -99 Descending New York Center
Wed 06:17:21 AM 40.0653 -75.4278 94° East 286 329 6,000 -130 Level New York Center
Wed 06:17:52 AM 40.0667 -75.3667 88° East 285 328 5,800 -1,121 Descending Philadelphia TRACON
Wed 06:18:52 AM 40.0333 -75.2667 113° Southeast 273 314 4,300 -1,450 Descending Philadelphia TRACON
Wed 06:19:52 AM 40.0000 -75.1833 118° Southeast 257 296 2,900 -1,048 Descending Philadelphia TRACON
Wed 06:20:58 AM 39.9500 -75.1333 143° Southeast 193 222 2,100 -905 Descending Philadelphia TRACON
Wed 06:21:58 AM 39.9000 -75.1500 194° South 157 181 1,000 -800 Descending Philadelphia TRACON
Wed 06:22:58 AM 39.8833 -75.1833 237° Southwest 144 166 500 -500 Descending Philadelphia TRACON

Login

Don't have an account? Register now (free) for customized features, flight alerts, and more!